CheckWX is a tool to help pilots better visualize weather data.  It is not intended as a substitute for an official pre-flight weather briefing.

10:09:08 UTC

SBBI TAF
Bacacheri Airport
Curitiba, Brazil
TAF SBBI 260130Z 2606/2618 34010KT CAVOK TN12/2609Z TX20/2617Z BECMG 2610/2613 02007KT 9999 SCT030 FEW035TCU PROB40 TEMPO 2614/2618 8000 SHRA SCT012 BKN020 FEW035TCU RMK PEB

Jun-26@
06:00 UTC

Jun-26 @ 06:00 UTC

Jun-26@
10:00 UTC

Jun-26 @ 10:00 UTC

TAF SBBI 260130Z 2606/2618 34010KT CAVOK TN12/2609Z TX20/2617Z

Expired

Wind
  • 340° at 10 KTS
Cloud Levels
  • No significant clouds

Jun-26@
10:00 UTC

Jun-26 @ 10:00 UTC

Jun-26@
18:00 UTC

Jun-26 @ 18:00 UTC

BECMG 2610/2613 02007KT 9999 SCT030 FEW035TCU

Becoming

Becoming Conditions expected by Wed, Jun 26, 2019 @ 13:00 UTC

Wind
  • 020° at 7 KTS
Cloud Levels
  • Scattered at 3,000' AGL
  • Few at 3,500' AGL

Jun-26@
14:00 UTC

Jun-26 @ 14:00 UTC

Jun-26@
18:00 UTC

Jun-26 @ 18:00 UTC

PROB40 TEMPO 2614/2618 8000 SHRA SCT012 BKN020 FEW035TCU RMK PEB

Temporary - 40% Likelihood

Temporary - 40% Likelihood during this time.

Conditions
Rain
Cloud Levels
  • Scattered at 1,200' AGL
  • Broken at 2,000' AGL
  • Few at 3,500' AGL